Pola de Laviana, Spain
Current Conditions -  °F | °C
As of 11:30 PM on Tuesday 21 Oct 2014 (Local Time) from LEAS Reporting Station
Haze Haze  
Wind Chill: 61°   Ceiling: 2500
Heat Index: 61°   Visibility: 3mi
Dew Point: 61°   Wind: 0mph
Humidity: 100%   Direction: NA
Pressure: 30.45"   Gusts: NA
Location:  43.25°N, 5.56°W
Report Text: LEAS 212130Z 00000KT 5000 BR BKN025 16/16 Q1031 TEMPO 0800BCFG BKN010
Loading
Personal Weather Stations






























Interactive Weather Map
Tropical Storm Tracking
New forecast layout! Learn more

10-Day Weather Forecast

Advertisements
Track Severe Weather on mobile